createdAt,value
2022-09-06T00:01:29.093Z,99.90
2022-09-06T00:03:56.032Z,99.90
2022-09-06T00:06:22.975Z,99.90
2022-09-06T00:08:50.163Z,99.90
2022-09-06T00:11:18.387Z,99.90
2022-09-06T00:13:46.316Z,99.90
2022-09-06T00:16:17.410Z,99.90
2022-09-06T00:19:40.726Z,99.90
2022-09-06T00:22:07.888Z,99.90
2022-09-06T00:24:37.154Z,99.90
2022-09-06T00:27:05.567Z,99.90
2022-09-06T00:29:33.277Z,99.90
2022-09-06T00:32:00.309Z,99.90
2022-09-06T00:34:28.321Z,99.90
2022-09-06T00:36:55.397Z,99.90
2022-09-06T00:39:28.065Z,99.90
2022-09-06T00:41:55.118Z,99.90
2022-09-06T00:44:22.076Z,99.90
2022-09-06T00:46:52.212Z,99.90
2022-09-06T00:49:31.153Z,99.90
2022-09-06T00:52:06.148Z,99.90
2022-09-06T00:54:33.422Z,99.90
2022-09-06T00:57:01.336Z,99.90
2022-09-06T00:59:33.368Z,99.90
2022-09-06T01:02:00.624Z,99.90
2022-09-06T01:04:29.132Z,99.90
2022-09-06T01:06:59.096Z,99.90
2022-09-06T01:10:03.711Z,99.90
2022-09-06T01:12:30.515Z,99.90
2022-09-06T01:15:29.081Z,99.90
2022-09-06T01:18:13.128Z,99.90
2022-09-06T01:20:58.735Z,99.90
2022-09-06T01:23:56.443Z,99.90
2022-09-06T01:26:51.286Z,99.90
2022-09-06T01:29:49.475Z,99.90
2022-09-06T01:32:19.078Z,99.90
2022-09-06T01:34:52.443Z,99.90
2022-09-06T01:37:20.421Z,99.90
2022-09-06T01:39:47.877Z,99.90
2022-09-06T01:42:28.191Z,99.90
2022-09-06T01:45:08.683Z,99.90
2022-09-06T01:47:58.928Z,99.90
2022-09-06T01:50:47.751Z,99.90
2022-09-06T01:53:25.057Z,99.90
2022-09-06T01:55:57.853Z,99.90
2022-09-06T01:59:03.334Z,99.90
2022-09-06T02:01:47.608Z,99.90
2022-09-06T02:04:30.047Z,99.90
2022-09-06T02:07:07.441Z,99.90
2022-09-06T02:09:41.216Z,99.90
2022-09-06T02:12:13.277Z,99.90
2022-09-06T02:14:47.152Z,99.90
2022-09-06T02:17:20.233Z,99.90
2022-09-06T02:20:25.071Z,99.90
2022-09-06T02:22:56.499Z,99.90
2022-09-06T02:25:31.963Z,99.90
2022-09-06T02:27:59.270Z,99.90
2022-09-06T02:31:05.963Z,99.90
2022-09-06T02:33:34.270Z,99.90
2022-09-06T02:36:08.408Z,99.90
2022-09-06T02:38:39.917Z,99.90
2022-09-06T02:41:07.810Z,99.90
2022-09-06T02:43:34.735Z,99.90
2022-09-06T02:46:01.922Z,99.90
2022-09-06T02:48:29.172Z,99.90
2022-09-06T02:50:56.112Z,99.90
2022-09-06T02:53:23.252Z,99.90
2022-09-06T02:55:50.155Z,99.90
2022-09-06T02:58:17.297Z,99.90
2022-09-06T03:00:44.139Z,99.90
2022-09-06T03:03:11.414Z,99.90
2022-09-06T03:05:39.998Z,99.90
2022-09-06T03:08:06.905Z,99.90
2022-09-06T03:10:34.058Z,99.90
2022-09-06T03:13:01.163Z,99.90
2022-09-06T03:15:28.035Z,99.90
2022-09-06T03:17:58.504Z,99.90
2022-09-06T03:20:45.558Z,99.90
2022-09-06T03:23:12.649Z,99.90
2022-09-06T03:25:39.885Z,99.90
2022-09-06T03:28:06.772Z,99.90
2022-09-06T03:30:33.670Z,99.90
2022-09-06T03:33:02.843Z,99.90
2022-09-06T03:35:29.907Z,99.90
2022-09-06T03:37:56.823Z,99.90
2022-09-06T03:40:24.960Z,99.90
2022-09-06T03:42:51.884Z,99.90
2022-09-06T03:45:18.738Z,99.90
2022-09-06T03:47:45.679Z,99.90
2022-09-06T03:50:15.016Z,99.90
2022-09-06T03:52:42.007Z,99.90
2022-09-06T03:55:09.400Z,99.90
2022-09-06T03:57:36.248Z,99.90
2022-09-06T04:00:05.249Z,99.90
2022-09-06T04:02:38.338Z,99.90
2022-09-06T04:05:06.478Z,99.90
2022-09-06T04:07:33.344Z,99.90
2022-09-06T04:10:38.863Z,99.90
2022-09-06T04:13:05.747Z,99.90
2022-09-06T04:15:32.624Z,99.90
2022-09-06T04:17:59.693Z,99.90
2022-09-06T04:20:26.707Z,99.90
2022-09-06T04:22:56.568Z,99.90
2022-09-06T04:25:23.428Z,99.90
2022-09-06T04:27:50.333Z,99.90
2022-09-06T04:30:17.450Z,99.90
2022-09-06T04:32:44.344Z,99.90
2022-09-06T04:35:11.260Z,99.90
2022-09-06T04:37:38.087Z,99.90
2022-09-06T04:40:06.904Z,99.90
2022-09-06T04:42:33.908Z,99.90
2022-09-06T04:45:01.077Z,99.90
2022-09-06T04:47:28.142Z,99.90
2022-09-06T04:49:56.195Z,99.90
2022-09-06T04:52:25.963Z,99.90
2022-09-06T04:54:55.117Z,99.90
2022-09-06T04:57:22.012Z,99.90
2022-09-06T05:00:08.221Z,99.90
2022-09-06T05:02:35.505Z,99.90
2022-09-06T05:05:02.495Z,99.90
2022-09-06T05:07:29.402Z,99.90
2022-09-06T05:09:56.755Z,99.90
2022-09-06T05:12:23.640Z,99.90
2022-09-06T05:14:50.567Z,99.90
2022-09-06T05:17:17.687Z,99.90
2022-09-06T05:20:07.765Z,99.90
2022-09-06T05:22:34.655Z,99.90
2022-09-06T05:25:01.590Z,99.90
2022-09-06T05:27:28.563Z,99.90
2022-09-06T05:29:56.634Z,99.90
2022-09-06T05:32:23.568Z,99.90
2022-09-06T05:34:50.427Z,99.90
2022-09-06T05:37:17.298Z,99.90
2022-09-06T05:39:44.425Z,99.90
2022-09-06T05:42:13.164Z,99.90
2022-09-06T05:44:42.868Z,99.90
2022-09-06T05:47:09.742Z,99.90
2022-09-06T05:49:36.921Z,99.90
2022-09-06T05:52:03.859Z,99.90
2022-09-06T05:54:30.751Z,99.90
2022-09-06T05:56:57.618Z,99.90
2022-09-06T05:59:26.458Z,99.90
2022-09-06T06:01:54.114Z,99.90
2022-09-06T06:04:22.369Z,99.90
2022-09-06T06:06:49.418Z,99.90
2022-09-06T06:09:16.860Z,99.90
2022-09-06T06:11:44.130Z,99.90
2022-09-06T06:14:11.128Z,99.90
2022-09-06T06:16:38.373Z,99.90
2022-09-06T06:19:07.645Z,99.90
2022-09-06T06:21:35.392Z,99.90
2022-09-06T06:24:04.227Z,99.90
2022-09-06T06:26:34.078Z,99.90
2022-09-06T06:29:05.674Z,99.90
2022-09-06T06:31:33.966Z,99.90
2022-09-06T06:34:03.671Z,99.90
2022-09-06T06:36:33.714Z,99.90
2022-09-06T06:39:39.443Z,99.90
2022-09-06T06:42:06.625Z,99.90
2022-09-06T06:44:49.574Z,99.90
2022-09-06T06:47:16.434Z,99.90
2022-09-06T06:49:43.525Z,99.90
2022-09-06T06:52:11.352Z,99.90
2022-09-06T06:54:38.216Z,99.90
2022-09-06T06:57:05.545Z,99.90
2022-09-06T06:59:34.631Z,99.90
2022-09-06T07:02:01.837Z,99.90
2022-09-06T07:04:28.740Z,99.90
2022-09-06T07:12:31.044Z,99.90
2022-09-06T07:14:57.971Z,99.90
2022-09-06T07:17:24.913Z,99.90
2022-09-06T07:22:38.785Z,99.90
2022-09-06T07:25:06.461Z,99.90
2022-09-06T07:27:49.958Z,99.90
2022-09-06T07:30:20.162Z,99.90
2022-09-06T07:32:47.579Z,99.90
2022-09-06T07:35:14.625Z,99.90
2022-09-06T07:37:41.794Z,99.90
2022-09-06T07:40:09.983Z,99.90
2022-09-06T07:42:36.990Z,99.90
2022-09-06T07:45:05.153Z,99.90
2022-09-06T07:53:08.957Z,99.90
2022-09-06T07:55:38.902Z,99.90
2022-09-06T07:58:06.184Z,99.90
2022-09-06T08:00:33.077Z,99.90
2022-09-06T08:03:00.118Z,99.90
2022-09-06T08:11:02.842Z,99.90
2022-09-06T08:13:29.963Z,99.90
2022-09-06T08:16:02.048Z,99.90
2022-09-06T08:18:29.506Z,99.90
2022-09-06T08:20:56.537Z,99.90
2022-09-06T08:23:23.688Z,99.90
2022-09-06T08:25:58.199Z,99.90
2022-09-06T08:28:28.913Z,99.90
2022-09-06T08:30:56.448Z,99.90
2022-09-06T08:33:25.592Z,99.90
2022-09-06T08:35:59.280Z,99.90
2022-09-06T08:38:28.707Z,99.90
2022-09-06T08:41:07.613Z,99.90
2022-09-06T08:43:35.384Z,99.90
2022-09-06T08:46:02.515Z,99.90
2022-09-06T08:48:37.071Z,99.90
2022-09-06T08:51:22.991Z,99.90
2022-09-06T08:53:49.976Z,99.90
2022-09-06T08:56:28.363Z,99.90
2022-09-06T08:59:09.388Z,99.90
2022-09-06T09:01:47.520Z,99.90
2022-09-06T09:04:19.669Z,99.90
2022-09-06T09:06:51.360Z,99.90
2022-09-06T09:09:37.296Z,99.90
2022-09-06T09:12:06.421Z,99.90
2022-09-06T09:14:38.071Z,99.90
2022-09-06T09:17:20.417Z,99.90
2022-09-06T09:19:47.742Z,99.90
2022-09-06T09:22:19.299Z,99.90
2022-09-06T09:24:48.386Z,99.90
2022-09-06T09:27:19.865Z,99.90
2022-09-06T09:32:47.586Z,99.90
2022-09-06T09:35:32.424Z,99.90
2022-09-06T09:38:12.400Z,99.90
2022-09-06T09:40:52.245Z,99.90
2022-09-06T09:43:26.778Z,99.90
2022-09-06T09:46:12.347Z,99.90
2022-09-06T09:48:41.054Z,99.90
2022-09-06T09:51:27.641Z,99.90
2022-09-06T09:53:57.775Z,99.90
2022-09-06T09:56:41.593Z,99.90
2022-09-06T09:59:27.817Z,99.90
2022-09-06T10:02:01.511Z,99.70
2022-09-06T10:04:57.583Z,98.60
2022-09-06T10:07:25.496Z,98.50
2022-09-06T10:09:58.432Z,98.50
2022-09-06T10:12:34.482Z,98.20
2022-09-06T10:15:07.286Z,98.30
2022-09-06T10:17:50.294Z,97.30
2022-09-06T10:20:32.119Z,97.20
2022-09-06T10:23:09.500Z,97.30
2022-09-06T10:25:49.217Z,96.70
2022-09-06T10:29:13.443Z,96.60
2022-09-06T10:31:42.190Z,95.90
2022-09-06T10:34:34.985Z,95.50
2022-09-06T10:37:07.632Z,95.70
2022-09-06T10:40:10.409Z,95.50
2022-09-06T10:42:53.911Z,95.20
2022-09-06T10:45:39.538Z,94.60
2022-09-06T10:48:28.530Z,94.70
2022-09-06T10:51:03.929Z,94.20
2022-09-06T10:53:52.016Z,93.10
2022-09-06T10:56:36.034Z,93.20
2022-09-06T11:02:34.385Z,90.90
2022-09-06T11:11:36.181Z,90.80
2022-09-06T11:14:13.865Z,91.10
2022-09-06T11:16:51.899Z,90.60
2022-09-06T11:19:26.861Z,91.00
2022-09-06T11:22:16.903Z,91.10
2022-09-06T11:25:22.130Z,91.50
2022-09-06T11:27:57.988Z,91.70
2022-09-06T11:31:05.211Z,91.50
2022-09-06T11:33:39.810Z,91.10
2022-09-06T11:36:45.186Z,90.90
2022-09-06T11:39:13.159Z,90.30
2022-09-06T11:41:42.491Z,90.20
2022-09-06T11:44:10.616Z,90.50
2022-09-06T11:46:41.093Z,90.20
2022-09-06T11:49:27.372Z,88.50
2022-09-06T11:51:54.345Z,88.80
2022-09-06T11:54:24.123Z,88.50
2022-09-06T11:57:17.388Z,88.60
2022-09-06T12:00:08.539Z,89.00
2022-09-06T12:02:41.277Z,87.70
2022-09-06T12:05:16.941Z,88.10
2022-09-06T12:08:22.855Z,87.10
2022-09-06T12:10:59.799Z,86.80
2022-09-06T12:13:38.509Z,85.70
2022-09-06T12:16:06.601Z,86.50
2022-09-06T12:18:47.929Z,87.30
2022-09-06T12:21:41.859Z,82.20
2022-09-06T12:24:34.777Z,80.80
2022-09-06T12:27:16.418Z,81.20
2022-09-06T12:30:00.028Z,79.70
2022-09-06T12:32:40.692Z,77.80
2022-09-06T12:38:14.953Z,72.30
2022-09-06T12:40:48.197Z,72.80
2022-09-06T12:43:17.090Z,70.40
2022-09-06T12:45:45.824Z,67.40
2022-09-06T12:48:41.327Z,67.50
2022-09-06T12:51:20.169Z,64.90
2022-09-06T12:54:04.183Z,64.40
2022-09-06T12:56:34.339Z,64.20
2022-09-06T12:59:14.279Z,63.00
2022-09-06T13:01:51.275Z,59.60
2022-09-06T13:04:30.132Z,56.50
2022-09-06T13:06:58.205Z,55.00
2022-09-06T13:09:27.356Z,55.70
2022-09-06T13:11:58.654Z,56.60
2022-09-06T13:14:29.410Z,57.50
2022-09-06T13:17:00.118Z,56.30
2022-09-06T13:19:34.904Z,55.20
2022-09-06T13:22:03.853Z,54.40
2022-09-06T13:24:36.959Z,55.00
2022-09-06T13:27:38.144Z,55.20
2022-09-06T13:30:10.341Z,54.90
2022-09-06T13:32:46.506Z,54.50
2022-09-06T13:35:23.883Z,54.70
2022-09-06T13:37:51.040Z,55.60
2022-09-06T13:40:59.924Z,55.80
2022-09-06T13:43:28.235Z,56.50
2022-09-06T13:46:06.603Z,56.10
2022-09-06T13:48:57.286Z,56.50
2022-09-06T13:51:26.421Z,56.10
2022-09-06T13:54:08.681Z,55.10
2022-09-06T13:56:36.144Z,54.60
2022-09-06T13:59:05.029Z,54.40
2022-09-06T14:01:33.160Z,55.60
2022-09-06T14:04:00.344Z,56.30
2022-09-06T14:06:27.307Z,57.20
2022-09-06T14:09:06.765Z,57.80
2022-09-06T14:11:35.116Z,58.70
2022-09-06T14:14:01.999Z,58.30
2022-09-06T14:16:29.335Z,58.30
2022-09-06T14:19:16.230Z,58.80
2022-09-06T14:21:43.406Z,59.60
2022-09-06T14:24:10.319Z,61.00
2022-09-06T14:26:38.599Z,62.20
2022-09-06T14:29:06.258Z,61.50
2022-09-06T14:31:33.169Z,61.30
2022-09-06T14:34:01.729Z,61.60
2022-09-06T14:36:31.594Z,61.50
2022-09-06T14:39:29.378Z,60.50
2022-09-06T14:41:56.401Z,59.80
2022-09-06T14:44:23.211Z,59.70
2022-09-06T14:46:53.405Z,59.60
2022-09-06T14:49:47.534Z,59.30
2022-09-06T14:52:14.516Z,57.70
2022-09-06T14:54:41.427Z,58.10
2022-09-06T14:57:08.332Z,59.10
2022-09-06T15:00:44.809Z,60.20
2022-09-06T15:03:11.735Z,61.40
2022-09-06T15:05:38.669Z,62.00
2022-09-06T15:08:06.201Z,61.40
2022-09-06T15:10:33.177Z,59.70
2022-09-06T15:13:00.157Z,58.20
2022-09-06T15:15:27.139Z,58.40
2022-09-06T15:17:54.072Z,58.30
2022-09-06T15:20:25.627Z,56.40
2022-09-06T15:23:03.867Z,56.20
2022-09-06T15:25:46.865Z,57.10
2022-09-06T15:28:53.753Z,58.00
2022-09-06T15:31:21.336Z,58.20
2022-09-06T15:33:50.204Z,59.50
2022-09-06T15:36:19.303Z,60.40
2022-09-06T15:39:05.708Z,61.60
2022-09-06T15:41:36.158Z,61.90
2022-09-06T15:44:09.608Z,62.00
2022-09-06T15:46:38.442Z,63.00
2022-09-06T15:49:45.095Z,63.90
2022-09-06T15:52:12.348Z,64.90
2022-09-06T15:54:57.708Z,65.40
2022-09-06T15:57:24.934Z,66.10
2022-09-06T15:59:52.883Z,67.10
2022-09-06T16:02:20.139Z,67.80
2022-09-06T16:04:47.212Z,68.30
2022-09-06T16:07:14.287Z,69.00
2022-09-06T16:09:42.524Z,69.50
2022-09-06T16:12:09.569Z,70.10
2022-09-06T16:14:37.716Z,70.60
2022-09-06T16:17:04.856Z,71.20
2022-09-06T16:19:33.026Z,71.70
2022-09-06T16:22:00.986Z,72.20
2022-09-06T16:24:28.229Z,73.20
2022-09-06T16:26:55.299Z,74.90
2022-09-06T16:29:24.273Z,77.80
2022-09-06T16:31:54.103Z,80.60
2022-09-06T16:34:21.037Z,83.50
2022-09-06T16:36:50.105Z,85.50
2022-09-06T16:39:18.215Z,87.70
2022-09-06T16:41:46.263Z,89.40
2022-09-06T16:44:16.612Z,90.30
2022-09-06T16:46:48.606Z,90.90
2022-09-06T16:49:17.736Z,91.50
2022-09-06T16:51:45.745Z,91.90
2022-09-06T16:54:13.994Z,92.50
2022-09-06T16:56:41.540Z,92.80
2022-09-06T17:00:11.035Z,93.00
2022-09-06T17:02:38.018Z,93.40
2022-09-06T17:05:06.069Z,93.60
2022-09-06T17:07:33.052Z,93.80
2022-09-06T17:10:00.194Z,93.70
2022-09-06T17:12:29.286Z,93.70
2022-09-06T17:14:56.279Z,93.50
2022-09-06T17:17:23.208Z,93.50
2022-09-06T17:19:50.528Z,93.70
2022-09-06T17:22:17.774Z,93.70
2022-09-06T17:24:44.780Z,93.80
2022-09-06T17:27:11.689Z,93.80
2022-09-06T17:29:40.181Z,94.00
2022-09-06T17:32:10.606Z,94.10
2022-09-06T17:34:40.878Z,94.30
2022-09-06T17:37:08.176Z,94.40
2022-09-06T17:39:35.417Z,94.20
2022-09-06T17:42:02.437Z,94.40
2022-09-06T17:44:29.473Z,94.50
2022-09-06T17:47:11.863Z,94.50
2022-09-06T17:49:42.543Z,94.50
2022-09-06T17:52:09.776Z,94.60
2022-09-06T17:54:36.932Z,94.50
2022-09-06T17:57:03.936Z,94.60
2022-09-06T17:59:35.389Z,94.70
2022-09-06T18:02:03.348Z,94.80
2022-09-06T18:04:33.433Z,95.00
2022-09-06T18:07:00.508Z,95.10
2022-09-06T18:09:47.066Z,95.30
2022-09-06T18:12:14.081Z,95.50
2022-09-06T18:14:41.379Z,95.60
2022-09-06T18:17:09.454Z,95.70
2022-09-06T18:19:38.337Z,95.60
2022-09-06T18:22:05.303Z,95.70
2022-09-06T18:24:32.176Z,95.90
2022-09-06T18:26:59.227Z,96.20
2022-09-06T18:29:28.096Z,96.50
2022-09-06T18:31:55.175Z,96.80
2022-09-06T18:34:22.364Z,97.20
2022-09-06T18:36:49.326Z,97.60
2022-09-06T18:39:17.191Z,97.80
2022-09-06T18:42:04.030Z,98.10
2022-09-06T18:44:32.880Z,98.30
2022-09-06T18:47:06.745Z,98.40
2022-09-06T18:49:35.553Z,98.60
2022-09-06T18:52:04.618Z,99.30
2022-09-06T18:54:32.311Z,99.90
2022-09-06T18:57:00.112Z,99.90
2022-09-06T18:59:46.980Z,99.90
2022-09-06T19:02:14.190Z,99.90
2022-09-06T19:04:41.152Z,99.90
2022-09-06T19:07:08.240Z,99.90
2022-09-06T19:09:54.332Z,99.90
2022-09-06T19:12:21.239Z,99.90
2022-09-06T19:14:48.104Z,99.90
2022-09-06T19:17:15.020Z,99.90
2022-09-06T19:19:43.078Z,99.90
2022-09-06T19:22:10.616Z,99.90
2022-09-06T19:24:39.175Z,99.90
2022-09-06T19:27:06.124Z,99.90
2022-09-06T19:29:34.342Z,99.90
2022-09-06T19:32:01.440Z,99.90
2022-09-06T19:34:29.216Z,99.90
2022-09-06T19:36:57.215Z,99.90
2022-09-06T19:39:31.163Z,99.90
2022-09-06T19:42:00.553Z,99.90
2022-09-06T19:44:27.921Z,99.90
2022-09-06T19:46:55.153Z,99.90
2022-09-06T19:49:23.407Z,99.90
2022-09-06T19:51:52.951Z,99.90
2022-09-06T19:54:20.300Z,99.90
2022-09-06T19:56:47.707Z,99.90
2022-09-06T19:59:16.391Z,99.90
2022-09-06T20:01:45.320Z,99.90
2022-09-06T20:04:38.217Z,99.90
2022-09-06T20:07:05.095Z,99.90
2022-09-06T20:09:32.295Z,99.90
2022-09-06T20:11:59.425Z,99.90
2022-09-06T20:14:26.671Z,99.90
2022-09-06T20:16:53.649Z,99.90
2022-09-06T20:19:20.969Z,99.90
2022-09-06T20:21:47.915Z,99.90
2022-09-06T20:24:14.777Z,99.90
2022-09-06T20:26:41.666Z,99.90
2022-09-06T20:29:10.953Z,99.90
2022-09-06T20:31:38.405Z,99.90
2022-09-06T20:34:06.357Z,99.90
2022-09-06T20:36:33.283Z,99.90
2022-09-06T20:39:04.618Z,99.90
2022-09-06T20:41:31.704Z,99.90
2022-09-06T20:43:59.659Z,99.90
2022-09-06T20:46:29.029Z,99.90
2022-09-06T20:49:18.930Z,99.90
2022-09-06T20:51:46.070Z,99.90
2022-09-06T20:54:13.980Z,99.90
2022-09-06T20:56:42.066Z,99.90
2022-09-06T20:59:28.748Z,99.90
2022-09-06T21:01:56.557Z,99.90
2022-09-06T21:04:23.461Z,99.90
2022-09-06T21:06:51.112Z,99.90
2022-09-06T21:09:20.086Z,99.90
2022-09-06T21:11:47.784Z,99.90
2022-09-06T21:14:15.043Z,99.90
2022-09-06T21:16:42.380Z,99.90
2022-09-06T21:19:12.777Z,99.90
2022-09-06T21:21:40.872Z,99.90
2022-09-06T21:24:08.639Z,99.90
2022-09-06T21:26:35.867Z,99.90
2022-09-06T21:29:04.824Z,99.90
2022-09-06T21:31:34.529Z,99.90
2022-09-06T21:34:05.270Z,99.90
2022-09-06T21:36:37.263Z,99.90
2022-09-06T21:39:07.628Z,99.90
2022-09-06T21:41:35.075Z,99.90
2022-09-06T21:44:03.614Z,99.90
2022-09-06T21:46:34.072Z,99.90
2022-09-06T21:49:12.753Z,99.90
2022-09-06T21:51:40.676Z,99.90
2022-09-06T21:54:07.492Z,99.90
2022-09-06T21:56:36.183Z,99.90
2022-09-06T21:59:05.550Z,99.90
2022-09-06T22:01:34.924Z,99.90
2022-09-06T22:04:02.459Z,99.90
2022-09-06T22:06:31.374Z,99.90
2022-09-06T22:09:19.228Z,99.90
2022-09-06T22:11:46.096Z,99.90
2022-09-06T22:14:14.288Z,99.90
2022-09-06T22:16:41.933Z,99.90
2022-09-06T22:19:11.780Z,99.90
2022-09-06T22:21:38.938Z,99.90
2022-09-06T22:24:09.018Z,99.90
2022-09-06T22:26:37.001Z,99.90
2022-09-06T22:29:08.441Z,99.90
2022-09-06T22:31:36.434Z,99.90
2022-09-06T22:34:04.048Z,99.90
2022-09-06T22:36:31.248Z,99.90
2022-09-06T22:39:35.997Z,99.90
2022-09-06T22:42:02.943Z,99.90
2022-09-06T22:44:30.320Z,99.90
2022-09-06T22:46:57.280Z,99.90
2022-09-06T22:49:25.625Z,99.90
2022-09-06T22:51:53.651Z,99.90
2022-09-06T22:54:20.666Z,99.90
2022-09-06T22:56:47.573Z,99.90
2022-09-06T22:59:15.106Z,99.90
2022-09-06T23:01:42.300Z,99.90
2022-09-06T23:04:10.044Z,99.90
2022-09-06T23:06:37.332Z,99.90
2022-09-06T23:09:24.023Z,99.90
2022-09-06T23:11:50.945Z,99.90
2022-09-06T23:14:17.856Z,99.90
2022-09-06T23:16:44.674Z,99.90
2022-09-06T23:19:11.908Z,99.90
2022-09-06T23:21:38.774Z,99.90
2022-09-06T23:24:05.728Z,99.90
2022-09-06T23:26:32.944Z,99.90
2022-09-06T23:29:00.226Z,99.90
2022-09-06T23:31:29.536Z,99.90
2022-09-06T23:33:58.915Z,99.90
2022-09-06T23:36:26.332Z,99.90
2022-09-06T23:38:53.435Z,99.90
2022-09-06T23:41:20.501Z,99.90
2022-09-06T23:43:47.343Z,99.90
2022-09-06T23:46:14.955Z,99.90
2022-09-06T23:49:01.843Z,99.90
2022-09-06T23:51:28.785Z,99.90
2022-09-06T23:53:55.733Z,99.90
2022-09-06T23:56:23.057Z,99.90
2022-09-06T23:59:09.879Z,99.90
